sensor_id;sensor_type;location;lat;lon;timestamp;P1;durP1;ratioP1;P2;durP2;ratioP2
9422;SDS011;65863;49.506;10.400;2023-04-08T00:00:18;17.30;;;11.50;;
9422;SDS011;65863;49.506;10.400;2023-04-08T00:03:02;14.77;;;11.73;;
9422;SDS011;65863;49.506;10.400;2023-04-08T00:05:46;13.37;;;11.17;;
9422;SDS011;65863;49.506;10.400;2023-04-08T00:08:30;16.83;;;12.23;;
9422;SDS011;65863;49.506;10.400;2023-04-08T00:11:15;16.60;;;12.23;;
9422;SDS011;65863;49.506;10.400;2023-04-08T00:13:59;12.93;;;11.30;;
9422;SDS011;65863;49.506;10.400;2023-04-08T00:16:43;17.90;;;12.27;;
9422;SDS011;65863;49.506;10.400;2023-04-08T00:19:27;14.20;;;12.00;;
9422;SDS011;65863;49.506;10.400;2023-04-08T00:22:11;14.97;;;11.73;;
9422;SDS011;65863;49.506;10.400;2023-04-08T00:24:56;14.47;;;11.40;;
9422;SDS011;65863;49.506;10.400;2023-04-08T00:27:40;13.07;;;11.60;;
9422;SDS011;65863;49.506;10.400;2023-04-08T00:30:24;16.97;;;12.30;;
9422;SDS011;65863;49.506;10.400;2023-04-08T00:33:09;16.73;;;12.33;;
9422;SDS011;65863;49.506;10.400;2023-04-08T00:35:55;14.77;;;11.70;;
9422;SDS011;65863;49.506;10.400;2023-04-08T00:38:39;12.90;;;11.37;;
9422;SDS011;65863;49.506;10.400;2023-04-08T00:41:24;12.30;;;10.67;;
9422;SDS011;65863;49.506;10.400;2023-04-08T00:44:08;12.47;;;11.00;;
9422;SDS011;65863;49.506;10.400;2023-04-08T00:46:52;13.60;;;10.97;;
9422;SDS011;65863;49.506;10.400;2023-04-08T00:49:36;12.40;;;10.43;;
9422;SDS011;65863;49.506;10.400;2023-04-08T00:52:20;12.87;;;10.67;;
9422;SDS011;65863;49.506;10.400;2023-04-08T00:55:04;14.33;;;10.87;;
9422;SDS011;65863;49.506;10.400;2023-04-08T00:57:49;12.10;;;10.10;;
9422;SDS011;65863;49.506;10.400;2023-04-08T01:00:33;13.03;;;11.23;;
9422;SDS011;65863;49.506;10.400;2023-04-08T01:09:07;14.50;;;10.53;;
9422;SDS011;65863;49.506;10.400;2023-04-08T01:11:53;12.80;;;10.83;;
9422;SDS011;65863;49.506;10.400;2023-04-08T01:14:41;12.80;;;10.90;;
9422;SDS011;65863;49.506;10.400;2023-04-08T01:17:27;12.57;;;10.83;;
9422;SDS011;65863;49.506;10.400;2023-04-08T01:20:13;12.53;;;10.80;;
9422;SDS011;65863;49.506;10.400;2023-04-08T01:25:44;15.07;;;11.20;;
9422;SDS011;65863;49.506;10.400;2023-04-08T01:28:35;12.93;;;11.13;;
9422;SDS011;65863;49.506;10.400;2023-04-08T01:31:21;13.23;;;11.23;;
9422;SDS011;65863;49.506;10.400;2023-04-08T01:34:07;12.97;;;10.50;;
9422;SDS011;65863;49.506;10.400;2023-04-08T01:36:54;15.87;;;11.27;;
9422;SDS011;65863;49.506;10.400;2023-04-08T01:39:39;14.20;;;10.30;;
9422;SDS011;65863;49.506;10.400;2023-04-08T01:42:24;15.33;;;11.63;;
9422;SDS011;65863;49.506;10.400;2023-04-08T01:45:11;15.33;;;12.10;;
9422;SDS011;65863;49.506;10.400;2023-04-08T01:47:56;14.67;;;11.23;;
9422;SDS011;65863;49.506;10.400;2023-04-08T01:50:43;13.17;;;10.50;;
9422;SDS011;65863;49.506;10.400;2023-04-08T01:53:30;12.57;;;10.60;;
9422;SDS011;65863;49.506;10.400;2023-04-08T01:56:16;13.03;;;10.93;;
9422;SDS011;65863;49.506;10.400;2023-04-08T01:59:05;14.13;;;11.83;;
9422;SDS011;65863;49.506;10.400;2023-04-08T02:01:53;13.53;;;11.13;;
9422;SDS011;65863;49.506;10.400;2023-04-08T02:04:38;15.30;;;12.93;;
9422;SDS011;65863;49.506;10.400;2023-04-08T02:07:22;15.37;;;12.73;;
9422;SDS011;65863;49.506;10.400;2023-04-08T02:10:06;18.83;;;13.77;;
9422;SDS011;65863;49.506;10.400;2023-04-08T02:12:51;19.20;;;14.67;;
9422;SDS011;65863;49.506;10.400;2023-04-08T02:15:37;16.60;;;13.30;;
9422;SDS011;65863;49.506;10.400;2023-04-08T02:18:24;18.27;;;13.23;;
9422;SDS011;65863;49.506;10.400;2023-04-08T02:21:12;17.43;;;13.43;;
9422;SDS011;65863;49.506;10.400;2023-04-08T02:23:58;20.13;;;13.17;;
9422;SDS011;65863;49.506;10.400;2023-04-08T02:26:48;28.20;;;14.13;;
9422;SDS011;65863;49.506;10.400;2023-04-08T02:29:36;29.60;;;13.87;;
9422;SDS011;65863;49.506;10.400;2023-04-08T02:32:23;24.93;;;13.90;;
9422;SDS011;65863;49.506;10.400;2023-04-08T02:35:08;18.57;;;14.90;;
9422;SDS011;65863;49.506;10.400;2023-04-08T02:37:55;30.67;;;16.03;;
9422;SDS011;65863;49.506;10.400;2023-04-08T02:40:39;30.60;;;15.93;;
9422;SDS011;65863;49.506;10.400;2023-04-08T02:43:23;19.53;;;15.93;;
9422;SDS011;65863;49.506;10.400;2023-04-08T02:46:14;25.90;;;16.63;;
9422;SDS011;65863;49.506;10.400;2023-04-08T02:48:58;23.57;;;15.93;;
9422;SDS011;65863;49.506;10.400;2023-04-08T02:51:42;47.60;;;17.07;;
9422;SDS011;65863;49.506;10.400;2023-04-08T02:54:26;32.87;;;16.23;;
9422;SDS011;65863;49.506;10.400;2023-04-08T02:57:10;36.93;;;16.90;;
9422;SDS011;65863;49.506;10.400;2023-04-08T02:59:55;24.63;;;16.27;;
9422;SDS011;65863;49.506;10.400;2023-04-08T03:02:39;31.93;;;15.97;;
9422;SDS011;65863;49.506;10.400;2023-04-08T03:05:24;24.10;;;17.30;;
9422;SDS011;65863;49.506;10.400;2023-04-08T03:08:09;22.70;;;16.43;;
9422;SDS011;65863;49.506;10.400;2023-04-08T03:10:53;21.40;;;16.03;;
9422;SDS011;65863;49.506;10.400;2023-04-08T03:13:37;25.73;;;16.97;;
9422;SDS011;65863;49.506;10.400;2023-04-08T03:16:21;20.33;;;16.07;;
9422;SDS011;65863;49.506;10.400;2023-04-08T03:19:04;20.17;;;16.30;;
9422;SDS011;65863;49.506;10.400;2023-04-08T03:21:48;21.80;;;16.33;;
9422;SDS011;65863;49.506;10.400;2023-04-08T03:24:33;23.67;;;16.10;;
9422;SDS011;65863;49.506;10.400;2023-04-08T03:27:17;19.60;;;15.57;;
9422;SDS011;65863;49.506;10.400;2023-04-08T03:30:00;19.00;;;14.13;;
9422;SDS011;65863;49.506;10.400;2023-04-08T03:32:44;18.83;;;14.70;;
9422;SDS011;65863;49.506;10.400;2023-04-08T03:35:28;19.30;;;15.17;;
9422;SDS011;65863;49.506;10.400;2023-04-08T03:38:12;19.17;;;14.67;;
9422;SDS011;65863;49.506;10.400;2023-04-08T03:40:56;17.33;;;14.57;;
9422;SDS011;65863;49.506;10.400;2023-04-08T03:43:40;17.53;;;14.17;;
9422;SDS011;65863;49.506;10.400;2023-04-08T03:46:24;17.00;;;14.17;;
9422;SDS011;65863;49.506;10.400;2023-04-08T03:49:08;17.20;;;13.97;;
9422;SDS011;65863;49.506;10.400;2023-04-08T03:51:52;15.77;;;13.10;;
9422;SDS011;65863;49.506;10.400;2023-04-08T03:54:36;14.03;;;12.00;;
9422;SDS011;65863;49.506;10.400;2023-04-08T03:57:20;14.80;;;12.47;;
9422;SDS011;65863;49.506;10.400;2023-04-08T04:00:04;14.67;;;12.50;;
9422;SDS011;65863;49.506;10.400;2023-04-08T04:02:55;17.73;;;12.80;;
9422;SDS011;65863;49.506;10.400;2023-04-08T04:05:40;15.67;;;12.90;;
9422;SDS011;65863;49.506;10.400;2023-04-08T04:08:24;18.60;;;14.53;;
9422;SDS011;65863;49.506;10.400;2023-04-08T04:11:07;15.57;;;13.10;;
9422;SDS011;65863;49.506;10.400;2023-04-08T04:13:52;16.30;;;13.67;;
9422;SDS011;65863;49.506;10.400;2023-04-08T04:16:36;16.47;;;13.33;;
9422;SDS011;65863;49.506;10.400;2023-04-08T04:19:20;16.90;;;13.23;;
9422;SDS011;65863;49.506;10.400;2023-04-08T04:22:03;17.47;;;13.67;;
9422;SDS011;65863;49.506;10.400;2023-04-08T04:24:48;15.40;;;12.97;;
9422;SDS011;65863;49.506;10.400;2023-04-08T04:27:32;18.10;;;13.10;;
9422;SDS011;65863;49.506;10.400;2023-04-08T04:30:16;18.13;;;12.67;;
9422;SDS011;65863;49.506;10.400;2023-04-08T04:33:02;14.40;;;12.30;;
9422;SDS011;65863;49.506;10.400;2023-04-08T04:35:46;15.03;;;12.60;;
9422;SDS011;65863;49.506;10.400;2023-04-08T04:38:30;15.77;;;12.30;;
9422;SDS011;65863;49.506;10.400;2023-04-08T04:41:14;15.83;;;12.40;;
9422;SDS011;65863;49.506;10.400;2023-04-08T04:43:58;15.20;;;12.67;;
9422;SDS011;65863;49.506;10.400;2023-04-08T04:46:41;15.90;;;12.13;;
9422;SDS011;65863;49.506;10.400;2023-04-08T04:49:26;20.03;;;15.13;;
9422;SDS011;65863;49.506;10.400;2023-04-08T04:52:10;16.70;;;13.70;;
9422;SDS011;65863;49.506;10.400;2023-04-08T04:54:53;15.63;;;12.33;;
9422;SDS011;65863;49.506;10.400;2023-04-08T04:57:37;15.37;;;12.70;;
9422;SDS011;65863;49.506;10.400;2023-04-08T05:00:21;17.37;;;13.70;;
9422;SDS011;65863;49.506;10.400;2023-04-08T05:03:05;21.60;;;15.03;;
9422;SDS011;65863;49.506;10.400;2023-04-08T05:05:53;32.77;;;15.07;;
9422;SDS011;65863;49.506;10.400;2023-04-08T05:08:37;30.73;;;16.33;;
9422;SDS011;65863;49.506;10.400;2023-04-08T05:11:21;29.93;;;16.07;;
9422;SDS011;65863;49.506;10.400;2023-04-08T05:14:05;25.33;;;15.53;;
9422;SDS011;65863;49.506;10.400;2023-04-08T05:16:49;22.07;;;14.87;;
9422;SDS011;65863;49.506;10.400;2023-04-08T05:19:33;21.10;;;14.43;;
9422;SDS011;65863;49.506;10.400;2023-04-08T05:22:18;17.90;;;13.67;;
9422;SDS011;65863;49.506;10.400;2023-04-08T05:25:02;16.63;;;13.23;;
9422;SDS011;65863;49.506;10.400;2023-04-08T05:27:47;16.53;;;13.30;;
9422;SDS011;65863;49.506;10.400;2023-04-08T05:30:31;16.83;;;13.53;;
9422;SDS011;65863;49.506;10.400;2023-04-08T05:33:15;15.83;;;12.93;;
9422;SDS011;65863;49.506;10.400;2023-04-08T05:35:59;15.33;;;12.90;;
9422;SDS011;65863;49.506;10.400;2023-04-08T05:38:43;14.30;;;12.80;;
9422;SDS011;65863;49.506;10.400;2023-04-08T05:41:28;16.30;;;11.40;;
9422;SDS011;65863;49.506;10.400;2023-04-08T05:44:12;13.63;;;10.67;;
9422;SDS011;65863;49.506;10.400;2023-04-08T05:46:57;11.63;;;10.37;;
9422;SDS011;65863;49.506;10.400;2023-04-08T05:49:46;11.33;;;10.23;;
9422;SDS011;65863;49.506;10.400;2023-04-08T05:52:50;14.83;;;10.07;;
9422;SDS011;65863;49.506;10.400;2023-04-08T05:55:43;11.83;;;10.57;;
9422;SDS011;65863;49.506;10.400;2023-04-08T05:58:55;11.53;;;10.33;;
9422;SDS011;65863;49.506;10.400;2023-04-08T06:01:55;15.43;;;12.33;;
9422;SDS011;65863;49.506;10.400;2023-04-08T06:04:53;15.33;;;12.40;;
9422;SDS011;65863;49.506;10.400;2023-04-08T06:07:40;13.87;;;12.17;;
9422;SDS011;65863;49.506;10.400;2023-04-08T06:10:29;14.50;;;12.90;;
9422;SDS011;65863;49.506;10.400;2023-04-08T06:13:32;13.10;;;11.80;;
9422;SDS011;65863;49.506;10.400;2023-04-08T06:20:03;14.07;;;11.23;;
9422;SDS011;65863;49.506;10.400;2023-04-08T06:22:52;13.13;;;11.57;;
9422;SDS011;65863;49.506;10.400;2023-04-08T06:25:36;13.70;;;11.57;;
9422;SDS011;65863;49.506;10.400;2023-04-08T06:28:20;12.43;;;11.13;;
9422;SDS011;65863;49.506;10.400;2023-04-08T06:31:04;11.43;;;10.23;;
9422;SDS011;65863;49.506;10.400;2023-04-08T06:33:48;14.57;;;11.67;;
9422;SDS011;65863;49.506;10.400;2023-04-08T06:36:32;12.03;;;10.83;;
9422;SDS011;65863;49.506;10.400;2023-04-08T06:39:16;12.47;;;11.17;;
9422;SDS011;65863;49.506;10.400;2023-04-08T06:42:02;13.00;;;11.60;;
9422;SDS011;65863;49.506;10.400;2023-04-08T06:44:55;12.50;;;11.07;;
9422;SDS011;65863;49.506;10.400;2023-04-08T06:47:41;14.70;;;11.97;;
9422;SDS011;65863;49.506;10.400;2023-04-08T06:50:25;17.47;;;13.07;;
9422;SDS011;65863;49.506;10.400;2023-04-08T06:53:09;14.73;;;12.43;;
9422;SDS011;65863;49.506;10.400;2023-04-08T06:55:54;13.03;;;11.60;;
9422;SDS011;65863;49.506;10.400;2023-04-08T06:58:38;14.27;;;11.50;;
9422;SDS011;65863;49.506;10.400;2023-04-08T07:01:23;14.63;;;11.83;;
9422;SDS011;65863;49.506;10.400;2023-04-08T07:04:08;11.70;;;10.50;;
9422;SDS011;65863;49.506;10.400;2023-04-08T07:06:52;12.40;;;10.73;;
9422;SDS011;65863;49.506;10.400;2023-04-08T07:09:36;13.30;;;11.10;;
9422;SDS011;65863;49.506;10.400;2023-04-08T07:12:24;12.27;;;10.85;;
9422;SDS011;65863;49.506;10.400;2023-04-08T07:15:08;10.97;;;9.87;;
9422;SDS011;65863;49.506;10.400;2023-04-08T07:17:53;11.93;;;10.10;;
9422;SDS011;65863;49.506;10.400;2023-04-08T07:20:39;10.60;;;9.50;;
9422;SDS011;65863;49.506;10.400;2023-04-08T07:23:24;11.07;;;9.40;;
9422;SDS011;65863;49.506;10.400;2023-04-08T07:26:08;10.47;;;9.37;;
9422;SDS011;65863;49.506;10.400;2023-04-08T07:28:52;13.67;;;9.20;;
9422;SDS011;65863;49.506;10.400;2023-04-08T07:31:36;12.57;;;8.67;;
9422;SDS011;65863;49.506;10.400;2023-04-08T07:34:20;10.90;;;9.33;;
9422;SDS011;65863;49.506;10.400;2023-04-08T07:37:04;11.70;;;10.07;;
9422;SDS011;65863;49.506;10.400;2023-04-08T07:39:48;11.10;;;9.73;;
9422;SDS011;65863;49.506;10.400;2023-04-08T07:42:32;12.03;;;10.00;;
9422;SDS011;65863;49.506;10.400;2023-04-08T07:45:17;12.63;;;10.20;;
9422;SDS011;65863;49.506;10.400;2023-04-08T07:48:02;10.60;;;9.43;;
9422;SDS011;65863;49.506;10.400;2023-04-08T07:50:46;12.60;;;9.50;;
9422;SDS011;65863;49.506;10.400;2023-04-08T07:53:31;11.53;;;8.97;;
9422;SDS011;65863;49.506;10.400;2023-04-08T07:56:16;10.53;;;9.43;;
9422;SDS011;65863;49.506;10.400;2023-04-08T07:59:01;9.70;;;8.40;;
9422;SDS011;65863;49.506;10.400;2023-04-08T08:01:46;11.00;;;9.83;;
9422;SDS011;65863;49.506;10.400;2023-04-08T08:04:30;10.37;;;8.93;;
9422;SDS011;65863;49.506;10.400;2023-04-08T08:07:15;10.90;;;9.40;;
9422;SDS011;65863;49.506;10.400;2023-04-08T08:09:59;10.27;;;8.20;;
9422;SDS011;65863;49.506;10.400;2023-04-08T08:12:44;9.53;;;8.17;;
9422;SDS011;65863;49.506;10.400;2023-04-08T08:15:28;9.57;;;7.70;;
9422;SDS011;65863;49.506;10.400;2023-04-08T08:18:12;9.33;;;7.67;;
9422;SDS011;65863;49.506;10.400;2023-04-08T08:20:57;13.40;;;8.17;;
9422;SDS011;65863;49.506;10.400;2023-04-08T08:23:44;10.27;;;8.03;;
9422;SDS011;65863;49.506;10.400;2023-04-08T08:26:28;9.77;;;8.53;;
9422;SDS011;65863;49.506;10.400;2023-04-08T08:29:13;14.50;;;9.27;;
9422;SDS011;65863;49.506;10.400;2023-04-08T08:31:57;8.90;;;7.67;;
9422;SDS011;65863;49.506;10.400;2023-04-08T08:34:42;11.53;;;8.43;;
9422;SDS011;65863;49.506;10.400;2023-04-08T08:37:26;12.77;;;8.30;;
9422;SDS011;65863;49.506;10.400;2023-04-08T08:40:10;8.97;;;8.07;;
9422;SDS011;65863;49.506;10.400;2023-04-08T08:42:54;10.83;;;7.60;;
9422;SDS011;65863;49.506;10.400;2023-04-08T08:45:42;11.67;;;8.17;;
9422;SDS011;65863;49.506;10.400;2023-04-08T08:48:26;9.67;;;7.90;;
9422;SDS011;65863;49.506;10.400;2023-04-08T08:51:10;9.67;;;7.57;;
9422;SDS011;65863;49.506;10.400;2023-04-08T08:53:55;9.73;;;8.10;;
9422;SDS011;65863;49.506;10.400;2023-04-08T08:56:39;11.13;;;8.27;;
9422;SDS011;65863;49.506;10.400;2023-04-08T08:59:25;11.50;;;7.60;;
9422;SDS011;65863;49.506;10.400;2023-04-08T09:02:25;8.73;;;7.80;;
9422;SDS011;65863;49.506;10.400;2023-04-08T09:05:10;9.23;;;7.27;;
9422;SDS011;65863;49.506;10.400;2023-04-08T09:07:54;9.60;;;7.50;;
9422;SDS011;65863;49.506;10.400;2023-04-08T09:10:39;10.13;;;7.90;;
9422;SDS011;65863;49.506;10.400;2023-04-08T09:13:23;9.83;;;7.60;;
9422;SDS011;65863;49.506;10.400;2023-04-08T09:16:08;11.63;;;8.30;;
9422;SDS011;65863;49.506;10.400;2023-04-08T09:18:53;9.13;;;8.23;;
9422;SDS011;65863;49.506;10.400;2023-04-08T09:21:37;8.57;;;7.63;;
9422;SDS011;65863;49.506;10.400;2023-04-08T09:24:29;9.27;;;7.37;;
9422;SDS011;65863;49.506;10.400;2023-04-08T09:27:14;9.60;;;7.07;;
9422;SDS011;65863;49.506;10.400;2023-04-08T09:30:14;8.53;;;7.63;;
9422;SDS011;65863;49.506;10.400;2023-04-08T09:32:58;8.70;;;7.53;;
9422;SDS011;65863;49.506;10.400;2023-04-08T09:35:44;7.87;;;6.23;;
9422;SDS011;65863;49.506;10.400;2023-04-08T09:38:29;7.60;;;6.83;;
9422;SDS011;65863;49.506;10.400;2023-04-08T09:41:15;8.00;;;6.53;;
9422;SDS011;65863;49.506;10.400;2023-04-08T09:44:00;7.97;;;6.37;;
9422;SDS011;65863;49.506;10.400;2023-04-08T09:46:50;9.73;;;6.13;;
9422;SDS011;65863;49.506;10.400;2023-04-08T09:49:43;6.20;;;5.60;;
9422;SDS011;65863;49.506;10.400;2023-04-08T09:52:32;6.77;;;5.57;;
9422;SDS011;65863;49.506;10.400;2023-04-08T09:55:22;6.10;;;5.40;;
9422;SDS011;65863;49.506;10.400;2023-04-08T09:58:10;6.87;;;6.17;;
9422;SDS011;65863;49.506;10.400;2023-04-08T10:01:03;6.90;;;5.70;;
9422;SDS011;65863;49.506;10.400;2023-04-08T10:03:51;7.77;;;6.07;;
9422;SDS011;65863;49.506;10.400;2023-04-08T10:06:38;5.97;;;5.10;;
9422;SDS011;65863;49.506;10.400;2023-04-08T10:09:24;5.90;;;5.30;;
9422;SDS011;65863;49.506;10.400;2023-04-08T10:12:10;5.20;;;4.70;;
9422;SDS011;65863;49.506;10.400;2023-04-08T10:20:52;6.17;;;5.10;;
9422;SDS011;65863;49.506;10.400;2023-04-08T10:23:52;8.43;;;4.90;;
9422;SDS011;65863;49.506;10.400;2023-04-08T10:26:42;5.43;;;4.93;;
9422;SDS011;65863;49.506;10.400;2023-04-08T10:32:26;5.10;;;4.50;;
9422;SDS011;65863;49.506;10.400;2023-04-08T10:35:12;5.10;;;4.57;;
9422;SDS011;65863;49.506;10.400;2023-04-08T10:38:00;5.77;;;4.77;;
9422;SDS011;65863;49.506;10.400;2023-04-08T10:40:47;5.13;;;4.60;;
9422;SDS011;65863;49.506;10.400;2023-04-08T10:43:32;4.00;;;3.60;;
9422;SDS011;65863;49.506;10.400;2023-04-08T10:46:18;3.87;;;3.50;;
9422;SDS011;65863;49.506;10.400;2023-04-08T10:49:02;5.47;;;3.53;;
9422;SDS011;65863;49.506;10.400;2023-04-08T10:51:46;3.80;;;3.40;;
9422;SDS011;65863;49.506;10.400;2023-04-08T10:54:30;4.47;;;3.90;;
9422;SDS011;65863;49.506;10.400;2023-04-08T10:57:22;4.53;;;3.80;;
9422;SDS011;65863;49.506;10.400;2023-04-08T11:00:10;5.10;;;3.90;;
9422;SDS011;65863;49.506;10.400;2023-04-08T11:03:07;4.33;;;3.93;;
9422;SDS011;65863;49.506;10.400;2023-04-08T11:05:52;4.37;;;3.63;;
9422;SDS011;65863;49.506;10.400;2023-04-08T11:08:40;4.33;;;3.93;;
9422;SDS011;65863;49.506;10.400;2023-04-08T11:11:31;4.07;;;3.27;;
9422;SDS011;65863;49.506;10.400;2023-04-08T11:14:15;3.63;;;3.17;;
9422;SDS011;65863;49.506;10.400;2023-04-08T11:17:04;3.70;;;3.40;;
9422;SDS011;65863;49.506;10.400;2023-04-08T11:19:51;3.57;;;3.23;;
9422;SDS011;65863;49.506;10.400;2023-04-08T11:22:35;4.30;;;3.50;;
9422;SDS011;65863;49.506;10.400;2023-04-08T11:25:19;3.73;;;3.40;;
9422;SDS011;65863;49.506;10.400;2023-04-08T11:28:03;4.77;;;3.50;;
9422;SDS011;65863;49.506;10.400;2023-04-08T11:30:49;3.07;;;2.87;;
9422;SDS011;65863;49.506;10.400;2023-04-08T11:33:34;3.40;;;3.10;;
9422;SDS011;65863;49.506;10.400;2023-04-08T11:36:29;3.60;;;3.20;;
9422;SDS011;65863;49.506;10.400;2023-04-08T11:39:13;3.00;;;2.80;;
9422;SDS011;65863;49.506;10.400;2023-04-08T11:41:58;3.83;;;3.43;;
9422;SDS011;65863;49.506;10.400;2023-04-08T11:44:43;4.00;;;3.60;;
9422;SDS011;65863;49.506;10.400;2023-04-08T11:47:31;4.93;;;3.00;;
9422;SDS011;65863;49.506;10.400;2023-04-08T11:50:23;4.83;;;3.30;;
9422;SDS011;65863;49.506;10.400;2023-04-08T11:53:15;4.93;;;2.87;;
9422;SDS011;65863;49.506;10.400;2023-04-08T11:56:16;3.93;;;3.43;;
9422;SDS011;65863;49.506;10.400;2023-04-08T11:59:02;3.30;;;3.00;;
9422;SDS011;65863;49.506;10.400;2023-04-08T12:01:48;3.40;;;3.10;;
9422;SDS011;65863;49.506;10.400;2023-04-08T12:04:32;5.77;;;3.50;;
9422;SDS011;65863;49.506;10.400;2023-04-08T12:07:17;4.50;;;3.57;;
9422;SDS011;65863;49.506;10.400;2023-04-08T12:10:00;3.80;;;3.40;;
9422;SDS011;65863;49.506;10.400;2023-04-08T12:12:45;4.10;;;3.00;;
9422;SDS011;65863;49.506;10.400;2023-04-08T12:15:29;4.37;;;2.90;;
9422;SDS011;65863;49.506;10.400;2023-04-08T12:18:14;3.30;;;3.00;;
9422;SDS011;65863;49.506;10.400;2023-04-08T12:20:59;3.00;;;2.80;;
9422;SDS011;65863;49.506;10.400;2023-04-08T12:23:43;3.57;;;3.27;;
9422;SDS011;65863;49.506;10.400;2023-04-08T12:26:28;3.53;;;3.23;;
9422;SDS011;65863;49.506;10.400;2023-04-08T12:29:13;3.53;;;3.17;;
9422;SDS011;65863;49.506;10.400;2023-04-08T12:31:58;4.40;;;3.33;;
9422;SDS011;65863;49.506;10.400;2023-04-08T12:34:43;5.30;;;3.63;;
9422;SDS011;65863;49.506;10.400;2023-04-08T12:37:27;3.87;;;3.47;;
9422;SDS011;65863;49.506;10.400;2023-04-08T12:40:11;4.30;;;3.63;;
9422;SDS011;65863;49.506;10.400;2023-04-08T12:42:56;4.20;;;3.77;;
9422;SDS011;65863;49.506;10.400;2023-04-08T12:45:40;4.37;;;3.87;;
9422;SDS011;65863;49.506;10.400;2023-04-08T12:48:25;4.40;;;4.00;;
9422;SDS011;65863;49.506;10.400;2023-04-08T12:51:09;4.53;;;4.13;;
9422;SDS011;65863;49.506;10.400;2023-04-08T12:53:54;4.77;;;4.20;;
9422;SDS011;65863;49.506;10.400;2023-04-08T12:59:31;4.23;;;3.87;;
9422;SDS011;65863;49.506;10.400;2023-04-08T13:02:15;4.87;;;3.70;;
9422;SDS011;65863;49.506;10.400;2023-04-08T13:04:59;4.70;;;4.07;;
9422;SDS011;65863;49.506;10.400;2023-04-08T13:07:44;6.07;;;3.80;;
9422;SDS011;65863;49.506;10.400;2023-04-08T13:10:28;4.13;;;3.73;;
9422;SDS011;65863;49.506;10.400;2023-04-08T13:13:12;4.53;;;4.10;;
9422;SDS011;65863;49.506;10.400;2023-04-08T13:15:57;4.30;;;3.80;;
9422;SDS011;65863;49.506;10.400;2023-04-08T13:18:41;4.07;;;3.67;;
9422;SDS011;65863;49.506;10.400;2023-04-08T13:21:26;3.73;;;3.33;;
9422;SDS011;65863;49.506;10.400;2023-04-08T13:24:10;4.47;;;4.07;;
9422;SDS011;65863;49.506;10.400;2023-04-08T13:26:54;6.07;;;4.20;;
9422;SDS011;65863;49.506;10.400;2023-04-08T13:29:40;4.20;;;3.70;;
9422;SDS011;65863;49.506;10.400;2023-04-08T13:32:24;3.63;;;3.33;;
9422;SDS011;65863;49.506;10.400;2023-04-08T13:35:07;3.70;;;3.40;;
9422;SDS011;65863;49.506;10.400;2023-04-08T13:37:52;4.13;;;3.73;;
9422;SDS011;65863;49.506;10.400;2023-04-08T13:40:36;3.97;;;3.57;;
9422;SDS011;65863;49.506;10.400;2023-04-08T13:43:19;3.83;;;3.47;;
9422;SDS011;65863;49.506;10.400;2023-04-08T13:46:03;4.43;;;4.00;;
9422;SDS011;65863;49.506;10.400;2023-04-08T13:48:47;4.77;;;3.93;;
9422;SDS011;65863;49.506;10.400;2023-04-08T13:51:31;4.40;;;4.00;;
9422;SDS011;65863;49.506;10.400;2023-04-08T13:54:15;4.13;;;3.73;;
9422;SDS011;65863;49.506;10.400;2023-04-08T13:56:59;3.70;;;3.40;;
9422;SDS011;65863;49.506;10.400;2023-04-08T13:59:44;3.57;;;3.27;;
9422;SDS011;65863;49.506;10.400;2023-04-08T14:02:28;4.00;;;3.37;;
9422;SDS011;65863;49.506;10.400;2023-04-08T14:05:12;4.43;;;3.67;;
9422;SDS011;65863;49.506;10.400;2023-04-08T14:07:56;6.10;;;4.10;;
9422;SDS011;65863;49.506;10.400;2023-04-08T14:10:40;3.90;;;3.60;;
9422;SDS011;65863;49.506;10.400;2023-04-08T14:13:24;4.10;;;3.70;;
9422;SDS011;65863;49.506;10.400;2023-04-08T14:16:08;4.10;;;3.70;;
9422;SDS011;65863;49.506;10.400;2023-04-08T14:18:52;4.30;;;3.90;;
9422;SDS011;65863;49.506;10.400;2023-04-08T14:21:36;4.50;;;3.80;;
9422;SDS011;65863;49.506;10.400;2023-04-08T14:24:20;4.43;;;3.47;;
9422;SDS011;65863;49.506;10.400;2023-04-08T14:27:04;3.90;;;3.50;;
9422;SDS011;65863;49.506;10.400;2023-04-08T14:29:48;3.83;;;3.53;;
9422;SDS011;65863;49.506;10.400;2023-04-08T14:32:32;5.03;;;4.17;;
9422;SDS011;65863;49.506;10.400;2023-04-08T14:35:16;4.30;;;3.90;;
9422;SDS011;65863;49.506;10.400;2023-04-08T14:38:00;4.97;;;4.00;;
9422;SDS011;65863;49.506;10.400;2023-04-08T14:40:44;4.43;;;3.83;;
9422;SDS011;65863;49.506;10.400;2023-04-08T14:43:28;6.07;;;3.80;;
9422;SDS011;65863;49.506;10.400;2023-04-08T14:46:12;4.57;;;3.63;;
9422;SDS011;65863;49.506;10.400;2023-04-08T14:48:56;4.63;;;4.23;;
9422;SDS011;65863;49.506;10.400;2023-04-08T14:51:41;3.73;;;3.40;;
9422;SDS011;65863;49.506;10.400;2023-04-08T14:54:25;4.37;;;4.03;;
9422;SDS011;65863;49.506;10.400;2023-04-08T14:57:09;4.30;;;3.90;;
9422;SDS011;65863;49.506;10.400;2023-04-08T14:59:53;4.33;;;3.93;;
9422;SDS011;65863;49.506;10.400;2023-04-08T15:02:37;3.90;;;3.60;;
9422;SDS011;65863;49.506;10.400;2023-04-08T15:05:21;3.60;;;3.27;;
9422;SDS011;65863;49.506;10.400;2023-04-08T15:08:05;3.47;;;3.17;;
9422;SDS011;65863;49.506;10.400;2023-04-08T15:10:53;3.10;;;2.87;;
9422;SDS011;65863;49.506;10.400;2023-04-08T15:13:37;3.30;;;3.10;;
9422;SDS011;65863;49.506;10.400;2023-04-08T15:17:04;3.30;;;3.00;;
9422;SDS011;65863;49.506;10.400;2023-04-08T15:20:27;3.90;;;3.60;;
9422;SDS011;65863;49.506;10.400;2023-04-08T15:23:26;4.30;;;3.87;;
9422;SDS011;65863;49.506;10.400;2023-04-08T15:26:30;3.57;;;3.27;;
9422;SDS011;65863;49.506;10.400;2023-04-08T15:29:14;3.73;;;3.43;;
9422;SDS011;65863;49.506;10.400;2023-04-08T15:31:59;3.70;;;3.40;;
9422;SDS011;65863;49.506;10.400;2023-04-08T15:34:44;4.07;;;3.67;;
9422;SDS011;65863;49.506;10.400;2023-04-08T15:37:31;3.70;;;3.40;;
9422;SDS011;65863;49.506;10.400;2023-04-08T15:43:11;3.70;;;3.37;;
9422;SDS011;65863;49.506;10.400;2023-04-08T15:45:56;3.83;;;3.53;;
9422;SDS011;65863;49.506;10.400;2023-04-08T15:48:40;3.67;;;3.37;;
9422;SDS011;65863;49.506;10.400;2023-04-08T15:51:39;4.53;;;3.87;;
9422;SDS011;65863;49.506;10.400;2023-04-08T15:54:27;3.70;;;3.27;;
9422;SDS011;65863;49.506;10.400;2023-04-08T15:57:13;4.37;;;3.97;;
9422;SDS011;65863;49.506;10.400;2023-04-08T15:59:57;4.50;;;3.53;;
9422;SDS011;65863;49.506;10.400;2023-04-08T16:02:41;3.97;;;3.63;;
9422;SDS011;65863;49.506;10.400;2023-04-08T16:05:26;4.10;;;3.70;;
9422;SDS011;65863;49.506;10.400;2023-04-08T16:08:11;4.47;;;4.07;;
9422;SDS011;65863;49.506;10.400;2023-04-08T16:10:59;4.70;;;4.17;;
9422;SDS011;65863;49.506;10.400;2023-04-08T16:13:47;6.70;;;6.10;;
9422;SDS011;65863;49.506;10.400;2023-04-08T16:16:32;4.87;;;4.47;;
9422;SDS011;65863;49.506;10.400;2023-04-08T16:19:16;5.30;;;4.80;;
9422;SDS011;65863;49.506;10.400;2023-04-08T16:22:00;5.57;;;4.70;;
9422;SDS011;65863;49.506;10.400;2023-04-08T16:24:44;5.07;;;4.57;;
9422;SDS011;65863;49.506;10.400;2023-04-08T16:27:28;5.43;;;4.93;;
9422;SDS011;65863;49.506;10.400;2023-04-08T16:30:12;5.77;;;4.97;;
9422;SDS011;65863;49.506;10.400;2023-04-08T16:32:56;5.40;;;4.90;;
9422;SDS011;65863;49.506;10.400;2023-04-08T16:35:40;5.20;;;4.77;;
9422;SDS011;65863;49.506;10.400;2023-04-08T16:38:24;4.73;;;4.23;;
9422;SDS011;65863;49.506;10.400;2023-04-08T16:41:09;5.40;;;4.90;;
9422;SDS011;65863;49.506;10.400;2023-04-08T16:43:53;5.30;;;4.80;;
9422;SDS011;65863;49.506;10.400;2023-04-08T16:46:38;5.83;;;5.20;;
9422;SDS011;65863;49.506;10.400;2023-04-08T16:49:22;5.83;;;5.23;;
9422;SDS011;65863;49.506;10.400;2023-04-08T16:52:06;5.23;;;4.47;;